Mountain View, North Carolina
Current Conditions -  °F | °C
As of 10:53 AM on Sunday 23 Nov 2014 (Local Time) from KHKY Reporting Station
Light Rain Light Rain  
Wind Chill: 42°   Ceiling: 1000
Heat Index: 42°   Visibility: 4mi
Dew Point: 37°   Wind: 0mph
Humidity: 82%   Direction: NA
Pressure: 30.18"   Gusts: NA
Location:  35.6584°N, 81.3878°W
Report Text: KHKY 231553Z AUTO 00000KT 4SM -RA OVC010 06/03 A3018 RMK AO2 RAB1457 SLP214 P0001 T00560028
Loading
Personal Weather Stations






























Interactive Weather Map New forecast layout! Learn more

10-Day Weather Forecast

Advertisements
Track Severe Weather on mobile